Time;durP1;ratioP1;P1;durP2;ratioP2;P2;SDS_P1;SDS_P2;PMS_P1;PMS_P2;Temp;Humidity;BMP_temperature;BMP_pressure;BME280_temperature;BME280_humidity;BME280_pressure;Samples;Min_cycle;Max_cycle;Signal;HPM_P1;HPM_P2
2022/03/17 00:01:23;;;;;;;;;5.33;5.00;;;;;28.61;24.95;101730.31;5076029;27;45323;-77
2022/03/17 00:03:49;;;;;;;;;5.00;5.00;;;;;28.71;25.08;101762.69;5075411;27;45474;-78
2022/03/17 00:06:14;;;;;;;;;7.00;7.00;;;;;27.93;25.68;101684.78;5075716;28;45496;-78
2022/03/17 00:08:40;;;;;;;;;7.67;5.00;;;;;28.11;25.57;101721.38;5074332;28;47447;-78
2022/03/17 00:11:06;;;;;;;;;6.33;5.33;;;;;28.13;25.81;101729.50;5075838;27;45319;-78
2022/03/17 00:13:31;;;;;;;;;6.00;5.67;;;;;28.30;25.61;101758.84;5075658;27;45331;-78
2022/03/17 00:15:57;;;;;;;;;8.00;8.00;;;;;28.02;25.49;101725.38;5075655;27;45621;-78
2022/03/17 00:18:22;;;;;;;;;8.67;7.00;;;;;28.18;26.05;101749.31;5075779;27;45476;-78
2022/03/17 00:20:48;;;;;;;;;8.00;8.00;;;;;28.12;25.54;101736.81;5074794;28;45513;-78
2022/03/17 00:23:13;;;;;;;;;6.67;6.67;;;;;28.02;25.83;101752.66;5075607;27;45497;-78
2022/03/17 00:25:38;;;;;;;;;7.33;7.00;;;;;28.02;25.66;101757.22;5075573;27;45319;-78
2022/03/17 00:28:04;;;;;;;;;7.67;7.67;;;;;28.08;25.79;101740.59;5075614;27;45426;-78
2022/03/17 00:30:29;;;;;;;;;6.33;6.33;;;;;28.32;25.30;101765.16;5075727;27;45234;-78
2022/03/17 00:32:55;;;;;;;;;11.00;9.33;;;;;28.29;25.21;101773.47;5075354;27;45494;-78
2022/03/17 00:35:36;;;;;;;;;8.00;8.00;;;;;28.19;25.64;101772.94;5075234;27;45512;-78
2022/03/17 00:38:03;;;;;;;;;11.67;8.33;;;;;28.34;25.59;101794.16;5075515;27;45425;-78
2022/03/17 00:40:30;;;;;;;;;12.33;11.67;;;;;28.01;25.58;101763.63;5075297;27;45454;-78
2022/03/17 00:42:56;;;;;;;;;11.00;11.00;;;;;28.03;26.02;101778.97;5075306;27;45457;-78
2022/03/17 00:45:22;;;;;;;;;10.00;7.00;;;;;28.33;25.61;101795.13;5075269;28;45264;-78
2022/03/17 00:47:47;;;;;;;;;12.67;10.00;;;;;28.24;25.63;101798.19;5074817;27;46297;-78
2022/03/17 00:50:13;;;;;;;;;11.00;10.67;;;;;28.16;25.73;101794.88;5073411;28;45821;-78
2022/03/17 00:52:38;;;;;;;;;11.67;11.67;;;;;27.75;26.31;101811.81;5074904;28;45610;-78
2022/03/17 00:55:05;;;;;;;;;11.33;11.00;;;;;28.04;25.78;101801.69;5074942;27;45510;-77
2022/03/17 00:57:31;;;;;;;;;12.33;11.00;;;;;28.05;25.54;101815.25;5075053;27;45517;-78
2022/03/17 00:59:56;;;;;;;;;12.00;12.00;;;;;28.04;25.86;101848.97;5075110;27;45573;-77
2022/03/17 01:02:22;;;;;;;;;12.67;12.67;;;;;27.99;25.78;101814.59;5074890;28;48441;-78
2022/03/17 01:04:47;;;;;;;;;16.33;15.67;;;;;28.13;25.94;101828.63;5073532;28;45565;-78
2022/03/17 01:07:12;;;;;;;;;17.00;14.67;;;;;28.20;25.50;101837.47;5074952;27;45704;-78
2022/03/17 01:09:38;;;;;;;;;15.67;14.67;;;;;27.92;26.09;101840.28;5075071;27;45499;-78
2022/03/17 01:12:04;;;;;;;;;19.00;16.33;;;;;28.14;25.88;101832.25;5075053;27;45451;-78
2022/03/17 01:14:29;;;;;;;;;16.67;14.67;;;;;28.12;25.86;101825.97;5073942;28;45699;-78
2022/03/17 01:16:55;;;;;;;;;18.00;15.33;;;;;28.03;26.14;101839.00;5074667;28;46151;-78
2022/03/17 01:19:21;;;;;;;;;15.67;14.00;;;;;28.28;25.77;101840.78;5074938;27;45442;-78
2022/03/17 01:21:48;;;;;;;;;20.00;20.00;;;;;28.32;25.61;101820.63;5074728;28;45335;-79
2022/03/17 01:24:14;;;;;;;;;17.00;17.00;;;;;28.41;25.74;101843.97;5075062;27;45305;-79
2022/03/17 01:26:40;;;;;;;;;23.00;18.00;;;;;28.42;25.62;101834.78;5074875;27;45557;-78
2022/03/17 01:29:05;;;;;;;;;21.67;20.00;;;;;28.31;25.88;101853.44;5074452;28;45343;-78
2022/03/17 01:31:31;;;;;;;;;20.33;18.33;;;;;28.29;25.67;101853.50;5074942;27;45352;-78
2022/03/17 01:33:57;;;;;;;;;19.33;17.00;;;;;28.13;25.62;101839.53;5074360;27;45304;-78
2022/03/17 01:36:23;;;;;;;;;15.33;15.00;;;;;28.11;25.77;101863.25;5077885;28;46193;-78
2022/03/17 01:38:48;;;;;;;;;24.67;22.00;;;;;28.03;25.80;101879.00;5078002;28;45316;-78
2022/03/17 01:41:14;;;;;;;;;23.00;18.00;;;;;27.94;26.02;101874.75;5078095;28;45333;-78
2022/03/17 01:43:39;;;;;;;;;23.00;20.33;;;;;27.84;26.13;101856.94;5078253;27;45408;-78
2022/03/17 01:46:05;;;;;;;;;21.00;16.67;;;;;27.96;25.92;101880.16;5077882;28;46166;-78
2022/03/17 01:48:30;;;;;;;;;14.67;13.33;;;;;27.75;25.76;101819.09;5077955;27;45302;-79
2022/03/17 01:50:55;;;;;;;;;19.33;19.33;;;;;27.95;25.68;101856.56;5078130;27;45339;-79
2022/03/17 01:53:25;;;;;;;;;19.33;19.33;;;;;28.01;25.86;101873.59;5078051;27;45565;-78
2022/03/17 01:55:50;;;;;;;;;20.67;17.67;;;;;28.28;25.76;101881.72;5077843;27;45459;-77
2022/03/17 01:58:17;;;;;;;;;20.00;18.67;;;;;27.85;26.14;101873.25;5077553;27;45429;-78
2022/03/17 02:00:46;;;;;;;;;18.67;18.33;;;;;27.91;25.83;101885.78;5077841;28;45660;-77
2022/03/17 02:03:12;;;;;;;;;23.33;21.33;;;;;27.86;26.16;101875.03;5077533;27;45336;-78
2022/03/17 02:05:38;;;;;;;;;18.33;18.33;;;;;27.59;26.02;101827.81;5077451;28;51858;-77
2022/03/17 02:08:06;;;;;;;;;19.33;17.00;;;;;27.96;26.36;101894.69;5077544;27;45336;-78
2022/03/17 02:13:08;;;;;;;;;14.67;14.67;;;;;28.04;25.95;101895.34;5077672;27;45339;-78
2022/03/17 02:13:17;;;;;;;;;14.33;14.00;;;;;28.18;25.65;101893.94;5077478;27;45281;-78
2022/03/17 02:15:43;;;;;;;;;19.00;19.00;;;;;28.01;25.91;101903.63;5077412;27;45810;-78
2022/03/17 02:18:08;;;;;;;;;21.00;20.00;;;;;27.88;25.98;101904.97;5076836;27;45540;-78
2022/03/17 02:20:37;;;;;;;;;16.00;14.67;;;;;27.92;25.94;101911.19;5077607;27;45337;-78
2022/03/17 02:25:50;;;;;;;;;15.00;14.00;;;;;28.18;25.68;101923.94;5077222;27;45722;-78
2022/03/17 02:28:16;;;;;;;;;15.00;14.33;;;;;27.71;25.69;101894.66;5076994;27;45467;-78
2022/03/17 02:30:41;;;;;;;;;20.00;18.67;;;;;27.87;25.73;101936.78;5075738;28;45415;-78
2022/03/17 02:33:09;;;;;;;;;14.00;12.33;;;;;28.14;25.65;101936.78;5076965;28;45522;-78
2022/03/17 02:35:35;;;;;;;;;14.00;12.67;;;;;28.01;25.54;101939.06;5077385;27;45360;-78
2022/03/17 02:38:02;;;;;;;;;16.67;15.33;;;;;27.82;25.62;101927.00;5077216;27;45409;-78
2022/03/17 02:40:28;;;;;;;;;16.67;15.67;;;;;27.67;25.63;101922.97;5077348;28;45506;-78
2022/03/17 02:42:54;;;;;;;;;15.67;15.00;;;;;27.68;26.03;101920.19;5076988;27;45578;-78
2022/03/17 02:45:22;;;;;;;;;20.00;20.00;;;;;27.77;26.07;101926.28;5076610;27;45314;-78
2022/03/17 02:47:47;;;;;;;;;18.33;14.00;;;;;27.82;25.95;101940.63;5076986;28;45430;-78
2022/03/17 02:50:13;;;;;;;;;20.00;18.00;;;;;28.00;25.73;101931.88;5077109;28;45456;-77
2022/03/17 02:52:39;;;;;;;;;17.00;15.67;;;;;28.05;25.63;101934.41;5076933;27;45353;-78
2022/03/17 02:55:05;;;;;;;;;16.33;15.33;;;;;27.90;25.72;101923.06;5076966;27;45712;-77
2022/03/17 02:57:31;;;;;;;;;20.67;17.33;;;;;28.02;25.52;101964.53;5075637;28;46111;-78
2022/03/17 02:59:56;;;;;;;;;15.00;15.00;;;;;28.05;25.68;101970.75;5076730;27;45218;-78
2022/03/17 03:02:22;;;;;;;;;15.33;14.67;;;;;28.11;25.71;101960.59;5076832;28;45266;-77
2022/03/17 03:04:48;;;;;;;;;16.33;14.67;;;;;27.68;25.54;101920.19;5076602;28;45705;-78
2022/03/17 03:07:13;;;;;;;;;13.33;13.33;;;;;27.75;25.61;101958.16;5076674;27;45533;-78
2022/03/17 03:09:39;;;;;;;;;15.67;15.00;;;;;27.89;25.52;101966.78;5077073;28;45434;-78
2022/03/17 03:12:05;;;;;;;;;16.33;16.33;;;;;27.87;25.65;101974.97;5076639;27;45521;-78
2022/03/17 03:14:30;;;;;;;;;16.00;15.33;;;;;27.69;25.70;101973.78;5076056;27;46050;-77
2022/03/17 03:16:56;;;;;;;;;13.33;12.33;;;;;27.72;25.25;101986.41;5076370;27;45482;-78
2022/03/17 03:19:22;;;;;;;;;13.00;13.00;;;;;27.68;25.75;101958.38;5076887;27;45344;-77
2022/03/17 03:21:47;;;;;;;;;15.00;14.00;;;;;27.60;25.49;101952.28;5076631;27;45485;-77
2022/03/17 03:24:13;;;;;;;;;11.00;10.33;;;;;27.68;25.58;101958.38;5076386;27;45416;-78
2022/03/17 03:26:41;;;;;;;;;14.00;14.00;;;;;27.70;25.28;101969.22;5076666;27;45393;-78
2022/03/17 03:29:49;;;;;;;;;15.33;14.00;;;;;27.64;25.59;101989.41;5076063;28;45568;-78
2022/03/17 03:32:02;;;;;;;;;16.67;15.33;;;;;27.44;25.70;101970.06;5067940;27;45336;-78
2022/03/17 03:34:28;;;;;;;;;18.33;14.00;;;;;27.51;25.51;101966.19;5076346;27;46041;-78
2022/03/17 03:39:38;;;;;;;;;13.67;12.33;;;;;27.51;25.64;101983.47;5076336;28;45405;-78
2022/03/17 03:42:05;;;;;;;;;13.33;11.00;;;;;27.44;25.60;101981.88;5076082;28;45490;-78
2022/03/17 03:44:30;;;;;;;;;17.00;16.00;;;;;27.64;25.31;102003.03;5075888;28;45484;-78
2022/03/17 03:46:56;;;;;;;;;13.67;13.67;;;;;27.41;25.37;102005.59;5076014;27;45414;-78
2022/03/17 03:49:21;;;;;;;;;12.67;12.67;;;;;27.15;25.71;102008.19;5074792;28;45534;-78
2022/03/17 03:51:48;;;;;;;;;14.00;13.00;;;;;27.27;25.54;102028.72;5076080;28;45507;-78
2022/03/17 03:54:15;;;;;;;;;13.00;13.00;;;;;27.15;25.48;101990.94;5076052;27;46407;-78
2022/03/17 03:56:44;;;;;;;;;15.00;12.00;;;;;27.46;25.53;102022.72;5076001;27;45427;-81
2022/03/17 03:59:20;;;;;;;;;15.33;13.00;;;;;27.39;25.38;102046.53;5075502;27;45276;-77
2022/03/17 04:01:51;;;;;;;;;13.00;11.67;;;;;27.43;25.73;102056.41;5075903;28;45400;-77
2022/03/17 04:04:20;;;;;;;;;12.33;12.33;;;;;27.36;25.58;102052.09;5073991;28;46301;-77
2022/03/17 04:06:47;;;;;;;;;15.33;14.00;;;;;27.32;25.39;102059.41;5075681;27;45482;-78
2022/03/17 04:09:13;;;;;;;;;11.33;11.33;;;;;27.40;25.68;102061.97;5075604;28;45549;-77
2022/03/17 04:11:40;;;;;;;;;11.00;11.00;;;;;27.42;25.53;102034.66;5075810;27;45424;-78
2022/03/17 04:14:06;;;;;;;;;17.67;11.33;;;;;27.50;25.50;102063.44;5075169;27;45565;-78
2022/03/17 04:16:32;;;;;;;;;7.00;6.33;;;;;27.46;25.41;102072.66;5065919;27;45767;-75
2022/03/17 04:18:57;;;;;;;;;15.00;13.00;;;;;27.08;25.35;102049.28;5069834;28;45380;-76
2022/03/17 04:21:23;;;;;;;;;14.33;10.67;;;;;26.93;25.38;102078.72;5074240;27;53297;-77
2022/03/17 04:23:48;;;;;;;;;13.33;12.33;;;;;26.79;25.85;102091.84;5074379;27;45569;-77
2022/03/17 04:26:14;;;;;;;;;14.33;14.33;;;;;26.90;25.83;102077.94;5074724;28;50657;-77
2022/03/17 04:28:39;;;;;;;;;16.33;13.33;;;;;26.70;25.74;102093.00;5075305;27;45939;-77
2022/03/17 04:31:04;;;;;;;;;12.33;12.00;;;;;26.87;25.51;102103.44;5078911;27;45425;-77
2022/03/17 04:33:30;;;;;;;;;15.33;11.33;;;;;27.03;25.58;102102.06;5094084;27;45902;-77
2022/03/17 04:35:55;;;;;;;;;10.00;9.00;;;;;26.55;25.20;102083.38;5089564;27;45543;-78
2022/03/17 04:38:22;;;;;;;;;10.33;10.33;;;;;26.83;25.61;102110.78;5063043;28;45419;-77
2022/03/17 04:40:49;;;;;;;;;9.00;6.67;;;;;26.53;25.03;102091.59;5075246;28;45477;-77
2022/03/17 04:43:17;;;;;;;;;8.67;6.00;;;;;26.48;25.26;102131.66;5074934;28;46239;-78
2022/03/17 04:45:44;;;;;;;;;9.67;9.67;;;;;26.53;25.32;102132.41;5075613;27;45317;-77
2022/03/17 04:48:09;;;;;;;;;11.00;8.00;;;;;26.34;25.37;102134.72;5074098;27;45310;-77
2022/03/17 04:50:35;;;;;;;;;11.00;8.33;;;;;26.25;25.30;102118.63;5075530;28;45356;-78
2022/03/17 04:55:44;;;;;;;;;8.33;8.00;;;;;26.16;25.20;102135.16;5074602;28;45228;-78
2022/03/17 04:58:09;;;;;;;;;9.33;8.00;;;;;26.15;25.00;102134.28;5075121;27;45379;-77
2022/03/17 05:00:34;;;;;;;;;10.00;9.00;;;;;26.45;24.95;102153.47;5075197;28;45369;-79
2022/03/17 05:03:00;;;;;;;;;6.33;6.33;;;;;26.37;25.23;102128.31;5074928;27;46533;-78
2022/03/17 05:05:25;;;;;;;;;10.00;9.00;;;;;26.45;25.03;102139.00;5066413;27;45560;-77
2022/03/17 05:07:56;;;;;;;;;6.00;5.00;;;;;26.62;24.89;102172.09;5070273;27;45525;-77
2022/03/17 05:10:21;;;;;;;;;12.33;8.33;;;;;26.57;24.43;102176.78;5058278;28;45284;-77
2022/03/17 05:12:47;;;;;;;;;6.00;6.00;;;;;26.53;24.63;102183.25;5058171;28;45354;-77
2022/03/17 05:15:12;;;;;;;;;9.00;8.00;;;;;26.34;24.81;102158.31;5058034;28;45319;-77
2022/03/17 05:17:39;;;;;;;;;6.00;6.00;;;;;26.56;24.89;102182.28;5058490;28;45253;-77
2022/03/17 05:20:07;;;;;;;;;9.33;8.00;;;;;26.39;24.50;102153.66;5058120;28;45526;-77
2022/03/17 05:22:33;;;;;;;;;8.00;8.00;;;;;26.64;24.59;102177.53;5056744;28;46090;-77
2022/03/17 05:24:58;;;;;;;;;9.33;8.33;;;;;26.68;24.65;102185.56;5057301;28;45317;-77
2022/03/17 05:27:23;;;;;;;;;11.67;8.67;;;;;26.61;24.59;102193.91;5055142;28;53069;-77
2022/03/17 05:29:50;;;;;;;;;8.00;8.00;;;;;26.63;24.44;102201.13;5057186;28;45419;-77
2022/03/17 05:32:15;;;;;;;;;11.33;9.00;;;;;26.48;24.52;102198.78;5056794;28;46415;-77
2022/03/17 05:34:41;;;;;;;;;5.33;5.33;;;;;26.46;24.59;102200.66;5056802;28;45415;-77
2022/03/17 05:37:06;;;;;;;;;8.00;8.00;;;;;26.19;24.90;102184.06;5056765;28;45874;-77
2022/03/17 05:39:32;;;;;;;;;8.00;8.00;;;;;26.20;24.64;102202.16;5056626;28;45487;-77
2022/03/17 05:41:57;;;;;;;;;9.00;7.67;;;;;26.44;24.64;102219.75;5072226;28;46191;-77
2022/03/17 05:44:23;;;;;;;;;8.67;8.00;;;;;26.31;24.46;102200.06;5076274;28;45466;-77
2022/03/17 05:46:48;;;;;;;;;12.33;9.00;;;;;26.49;24.83;102214.19;5078018;27;45488;-77
2022/03/17 05:49:13;;;;;;;;;1.33;1.00;;;;;26.44;24.43;102213.41;5076694;28;45363;-77
2022/03/17 05:51:39;;;;;;;;;5.00;3.33;;;;;26.49;24.67;102223.22;5077749;27;45929;-77
2022/03/17 05:54:06;;;;;;;;;9.00;9.00;;;;;26.70;24.40;102235.44;5077798;27;45346;-77
2022/03/17 05:56:31;;;;;;;;;5.33;5.33;;;;;26.69;24.15;102213.72;5077886;27;45583;-77
2022/03/17 05:58:56;;;;;;;;;10.00;10.00;;;;;26.67;24.72;102246.38;5077961;27;45443;-77
2022/03/17 06:01:22;;;;;;;;;9.67;9.67;;;;;26.61;24.78;102241.13;5077442;28;48308;-77
2022/03/17 06:03:47;;;;;;;;;10.00;10.00;;;;;26.64;24.43;102251.91;5077819;27;45390;-77
2022/03/17 06:06:12;;;;;;;;;9.00;9.00;;;;;26.72;24.39;102251.75;5077419;28;45448;-77
2022/03/17 06:08:38;;;;;;;;;9.00;8.00;;;;;26.73;24.65;102255.38;5077182;27;45521;-77
2022/03/17 06:11:05;;;;;;;;;9.00;9.00;;;;;26.45;24.60;102217.91;5077593;27;45355;-77
2022/03/17 06:13:31;;;;;;;;;9.00;9.00;;;;;26.38;24.59;102241.66;5077193;27;45422;-77
2022/03/17 06:15:56;;;;;;;;;10.00;10.00;;;;;26.63;24.50;102266.44;5077729;27;45746;-77
2022/03/17 06:18:22;;;;;;;;;9.33;9.33;;;;;26.58;24.89;102268.41;5077401;27;45297;-77
2022/03/17 06:20:47;;;;;;;;;11.33;10.33;;;;;26.70;24.80;102273.56;5076358;27;50889;-77
2022/03/17 06:23:12;;;;;;;;;9.67;9.00;;;;;26.76;24.71;102275.25;5077118;27;45481;-77
2022/03/17 06:25:38;;;;;;;;;10.33;9.33;;;;;26.60;24.71;102276.53;5077529;27;45269;-77
2022/03/17 06:28:04;;;;;;;;;10.33;9.33;;;;;26.43;24.71;102252.44;5077510;28;45593;-77
2022/03/17 06:30:37;;;;;;;;;12.67;10.00;;;;;26.54;24.70;102304.78;5076756;27;46511;-77
2022/03/17 06:33:04;;;;;;;;;10.33;8.67;;;;;26.72;24.40;102305.31;5076792;27;45557;-77
2022/03/17 06:35:30;;;;;;;;;10.00;9.00;;;;;26.51;24.39;102266.75;5076819;27;45350;-77
2022/03/17 06:38:00;;;;;;;;;9.67;9.67;;;;;26.87;24.37;102305.81;5075533;28;45479;-77
2022/03/17 06:40:29;;;;;;;;;11.00;10.00;;;;;26.52;24.61;102268.53;5076606;27;45509;-77
2022/03/17 06:42:55;;;;;;;;;8.00;8.00;;;;;26.51;24.63;102302.13;5076786;27;45498;-77
2022/03/17 06:45:21;;;;;;;;;12.00;10.00;;;;;26.60;24.88;102328.25;5076840;28;45376;-77
2022/03/17 06:47:47;;;;;;;;;11.00;10.00;;;;;26.48;24.59;102288.59;5076940;28;45521;-77
2022/03/17 06:50:14;;;;;;;;;9.67;9.00;;;;;26.47;24.22;102294.97;5076712;27;46224;-77
2022/03/17 06:52:40;;;;;;;;;7.67;7.67;;;;;26.70;24.35;102333.47;5076464;27;45424;-77
2022/03/17 06:55:06;;;;;;;;;10.33;9.33;;;;;26.35;24.71;102321.53;5076995;27;45403;-77
2022/03/17 06:57:31;;;;;;;;;9.67;9.67;;;;;26.29;24.33;102331.66;5076627;28;45344;-78
2022/03/17 06:59:56;;;;;;;;;8.67;8.67;;;;;26.35;24.22;102324.25;5076632;27;46228;-77
2022/03/17 07:02:22;;;;;;;;;8.00;7.00;;;;;26.58;24.00;102365.50;5076203;27;45446;-78
2022/03/17 07:04:47;;;;;;;;;11.00;7.33;;;;;26.35;23.91;102315.19;5076338;27;45242;-77
2022/03/17 07:07:13;;;;;;;;;7.00;5.00;;;;;26.69;24.10;102375.25;5076554;28;45311;-77
2022/03/17 07:09:41;;;;;;;;;9.67;9.00;;;;;26.11;23.92;102368.31;5076441;28;46129;-77
2022/03/17 07:12:07;;;;;;;;;6.67;6.33;;;;;26.16;23.73;102359.13;5076125;27;45436;-77
2022/03/17 07:14:32;;;;;;;;;9.00;8.00;;;;;26.08;23.49;102381.97;5076203;28;45265;-77
2022/03/17 07:16:58;;;;;;;;;5.67;4.67;;;;;26.05;23.36;102392.91;5076005;28;45324;-77
2022/03/17 07:19:23;;;;;;;;;4.00;4.00;;;;;25.76;23.64;102329.09;5075958;27;46312;-78
2022/03/17 07:21:49;;;;;;;;;5.00;5.00;;;;;26.17;23.43;102399.00;5075788;27;45496;-77
2022/03/17 07:24:15;;;;;;;;;4.00;4.00;;;;;26.12;23.44;102394.59;5076549;27;45512;-77
2022/03/17 07:26:40;;;;;;;;;3.33;3.00;;;;;25.90;23.67;102375.03;5076117;27;45516;-77
2022/03/17 07:29:06;;;;;;;;;4.33;4.33;;;;;25.93;24.23;102413.94;5075620;27;45327;-77
2022/03/17 07:31:32;;;;;;;;;9.67;7.67;;;;;26.04;24.07;102418.31;5075631;27;45571;-77
2022/03/17 07:33:59;;;;;;;;;6.33;5.33;;;;;25.73;24.32;102386.25;5075676;27;45312;-77
2022/03/17 07:36:25;;;;;;;;;8.33;8.33;;;;;24.11;24.34;102102.97;5075503;27;45415;-77
2022/03/17 07:38:53;;;;;;;;;4.67;3.00;;;;;25.86;24.41;102406.81;5076141;27;46555;-77
2022/03/17 07:41:18;;;;;;;;;6.33;6.33;;;;;25.73;24.29;102408.88;5076135;27;45463;-77
2022/03/17 07:43:43;;;;;;;;;5.00;5.00;;;;;25.91;24.10;102440.28;5077044;27;45677;-77
2022/03/17 07:46:09;;;;;;;;;5.67;3.00;;;;;25.98;24.05;102441.94;5077567;27;45817;-77
2022/03/17 07:48:35;;;;;;;;;9.00;6.33;;;;;25.58;24.46;102420.91;5074322;27;45474;-77
2022/03/17 07:51:00;;;;;;;;;6.33;6.00;;;;;25.81;24.34;102425.06;5075254;27;45329;-78
2022/03/17 07:53:26;;;;;;;;;8.00;7.33;;;;;25.95;23.99;102441.09;5073014;27;45245;-78
2022/03/17 07:55:54;;;;;;;;;6.00;6.00;;;;;25.97;24.44;102434.72;5075258;28;45428;-77
2022/03/17 07:58:26;;;;;;;;;6.33;4.00;;;;;26.08;23.98;102431.81;5075103;28;45584;-77
2022/03/17 08:00:52;;;;;;;;;5.00;5.00;;;;;26.19;23.66;102447.94;5108572;27;45993;-78
2022/03/17 08:03:19;;;;;;;;;7.67;6.00;;;;;26.03;23.69;102417.41;5075373;27;45460;-80
2022/03/17 08:05:48;;;;;;;;;8.33;8.33;;;;;26.07;23.94;102423.69;5075437;27;45660;-81
2022/03/17 08:08:14;;;;;;;;;6.00;5.00;;;;;26.23;23.70;102460.56;5081025;27;46367;-83
2022/03/17 08:10:40;;;;;;;;;7.00;5.33;;;;;26.24;23.87;102480.50;5085077;27;45506;-82
2022/03/17 08:13:06;;;;;;;;;8.67;6.33;;;;;26.02;23.25;102430.13;5073048;28;45574;-81
2022/03/17 08:15:31;;;;;;;;;4.67;4.00;;;;;26.22;23.57;102485.97;5075738;27;45472;-83
2022/03/17 08:17:57;;;;;;;;;8.33;6.33;;;;;26.23;23.34;102490.50;5075634;27;46630;-80
2022/03/17 08:20:22;;;;;;;;;5.67;5.00;;;;;26.19;23.32;102480.59;5075125;27;45344;-81
2022/03/17 08:22:49;;;;;;;;;5.00;5.00;;;;;26.09;22.63;102485.31;5075173;27;45412;-80
2022/03/17 08:25:15;;;;;;;;;6.67;6.67;;;;;26.02;23.23;102489.06;5075833;28;45246;-80
2022/03/17 08:27:42;;;;;;;;;5.67;5.67;;;;;25.78;22.82;102468.59;5081894;27;45515;-79
2022/03/17 08:30:08;;;;;;;;;3.33;3.00;;;;;25.91;23.16;102494.66;5074435;27;45398;-80
2022/03/17 08:32:34;;;;;;;;;4.67;4.67;;;;;25.65;23.10;102495.09;5079878;27;45494;-79
2022/03/17 08:34:59;;;;;;;;;6.00;4.00;;;;;25.84;22.75;102506.56;5074454;27;45464;-77
2022/03/17 08:37:24;;;;;;;;;8.00;5.00;;;;;25.89;23.25;102507.38;5070539;27;45509;-78
2022/03/17 08:39:49;;;;;;;;;6.00;6.00;;;;;26.17;22.84;102520.50;5074519;28;45480;-77
2022/03/17 08:42:15;;;;;;;;;5.00;5.00;;;;;26.39;22.69;102515.56;5074177;28;45350;-78
2022/03/17 08:44:41;;;;;;;;;5.33;5.33;;;;;26.16;23.30;102522.34;5085758;27;45754;-77
2022/03/17 08:49:50;;;;;;;;;8.67;7.33;;;;;26.14;23.36;102521.47;5077051;27;45512;-78
2022/03/17 08:52:15;;;;;;;;;8.00;8.00;;;;;26.39;22.84;102541.91;5077814;27;45476;-79
2022/03/17 08:54:42;;;;;;;;;9.00;7.33;;;;;26.36;23.02;102523.81;5082314;27;45378;-76
2022/03/17 08:57:08;;;;;;;;;7.33;6.00;;;;;26.22;23.02;102536.78;5082603;27;45588;-77
2022/03/17 08:59:36;;;;;;;;;7.00;5.00;;;;;26.26;22.96;102542.13;5078058;28;45342;-78
2022/03/17 09:02:07;;;;;;;;;6.33;6.33;;;;;26.19;23.27;102535.88;5078334;27;45502;-81
2022/03/17 09:04:33;;;;;;;;;6.33;6.00;;;;;26.04;22.82;102543.44;5078286;27;45422;-79
2022/03/17 09:07:00;;;;;;;;;8.00;6.33;;;;;26.02;22.69;102549.78;5079032;27;45572;-79
2022/03/17 09:09:26;;;;;;;;;8.00;6.00;;;;;25.99;22.96;102559.78;5077724;27;45557;-79
2022/03/17 09:11:52;;;;;;;;;10.00;5.33;;;;;26.30;23.00;102554.75;5077650;27;45835;-78
2022/03/17 09:14:17;;;;;;;;;8.00;8.00;;;;;26.65;22.77;102577.69;5078047;27;45499;-79
2022/03/17 09:16:43;;;;;;;;;8.00;6.00;;;;;26.63;22.63;102575.91;5080317;27;57780;-77
2022/03/17 09:19:08;;;;;;;;;7.33;7.00;;;;;26.53;22.30;102572.47;5075036;27;46225;-79
2022/03/17 09:21:35;;;;;;;;;10.00;6.00;;;;;26.39;22.25;102556.38;5080094;27;45474;-78
2022/03/17 09:24:01;;;;;;;;;6.00;6.00;;;;;26.41;22.27;102561.81;5077816;27;45727;-79
2022/03/17 09:26:26;;;;;;;;;5.33;5.00;;;;;26.54;22.40;102579.72;5077098;27;45993;-79
2022/03/17 09:28:52;;;;;;;;;10.67;8.67;;;;;26.57;22.27;102592.34;5080984;27;45912;-79
2022/03/17 09:31:18;;;;;;;;;7.00;6.00;;;;;26.88;22.54;102589.97;5076826;27;45515;-79
2022/03/17 09:33:45;;;;;;;;;11.33;10.00;;;;;26.85;21.98;102584.59;5071909;28;45511;-79
2022/03/17 09:36:10;;;;;;;;;8.33;7.33;;;;;26.47;22.15;102591.59;5077513;28;45355;-79
2022/03/17 09:38:36;;;;;;;;;9.00;6.00;;;;;26.65;22.49;102588.56;5081104;27;45511;-79
2022/03/17 09:41:01;;;;;;;;;11.00;9.67;;;;;26.46;22.35;102607.06;5077757;28;45644;-79
2022/03/17 09:43:29;;;;;;;;;9.67;6.00;;;;;26.11;22.64;102539.69;5077909;28;45473;-79
2022/03/17 09:45:56;;;;;;;;;10.00;9.00;;;;;26.53;22.74;102614.19;5080327;27;46352;-78
2022/03/17 09:48:25;;;;;;;;;11.00;8.67;;;;;26.57;22.35;102616.84;5077723;27;45354;-80
2022/03/17 09:50:56;;;;;;;;;10.67;9.67;;;;;26.53;22.72;102616.00;5081026;27;45417;-79
2022/03/17 09:53:23;;;;;;;;;11.67;10.67;;;;;26.61;22.09;102604.97;5076842;27;45395;-80
2022/03/17 09:55:50;;;;;;;;;11.33;9.33;;;;;26.38;22.48;102586.34;5076087;27;45587;-80
2022/03/17 09:58:16;;;;;;;;;9.33;6.00;;;;;26.44;22.65;102624.34;5077624;27;45447;-81
2022/03/17 10:00:48;;;;;;;;;11.33;8.00;;;;;26.37;22.50;102629.00;5079555;27;45493;-80
2022/03/17 10:03:15;;;;;;;;;8.00;8.00;;;;;26.32;22.44;102637.22;5082846;27;45298;-79
2022/03/17 10:05:43;;;;;;;;;11.33;10.00;;;;;26.37;22.45;102634.44;5072725;27;46183;-79
2022/03/17 10:08:09;;;;;;;;;10.67;10.00;;;;;26.40;22.40;102604.47;5077113;27;45379;-79
2022/03/17 10:10:36;;;;;;;;;11.00;10.33;;;;;26.45;22.49;102645.19;5080078;27;45699;-79
2022/03/17 10:13:28;;;;;;;;;6.67;6.33;;;;;26.36;22.33;102641.69;5070574;27;45577;-79
2022/03/17 10:16:09;;;;;;;;;9.00;9.00;;;;;26.20;22.86;102588.47;5076884;27;47234;-80
2022/03/17 10:18:38;;;;;;;;;11.00;10.00;;;;;26.44;22.54;102637.94;5076810;27;45336;-79
2022/03/17 10:21:12;;;;;;;;;7.33;6.00;;;;;26.54;22.08;102645.94;5079683;27;45493;-80
2022/03/17 10:23:53;;;;;;;;;9.33;9.00;;;;;26.51;22.01;102612.41;5081544;27;45688;-80
2022/03/17 10:26:38;;;;;;;;;10.00;7.67;;;;;26.76;22.13;102639.22;5075554;27;46259;-79
2022/03/17 10:29:09;;;;;;;;;10.00;7.67;;;;;26.92;21.79;102648.91;5076193;27;45520;-80
2022/03/17 10:31:59;;;;;;;;;8.33;8.33;;;;;26.87;21.68;102656.25;5076513;27;45395;-79
2022/03/17 10:34:28;;;;;;;;;9.33;8.00;;;;;26.81;21.91;102659.09;5074307;28;45607;-79
2022/03/17 10:37:15;;;;;;;;;9.00;9.00;;;;;26.79;21.98;102666.38;5072261;27;45497;-78
2022/03/17 10:39:47;;;;;;;;;11.00;10.00;;;;;26.75;21.73;102651.94;5074744;28;45420;-78
2022/03/17 10:42:27;;;;;;;;;10.00;10.00;;;;;26.54;21.70;102650.47;5076694;27;45610;-79
2022/03/17 10:45:00;;;;;;;;;13.00;10.67;;;;;26.74;21.79;102665.59;5082823;27;45286;-79
2022/03/17 10:47:31;;;;;;;;;12.33;12.00;;;;;26.66;22.05;102661.13;5073373;27;45525;-78
2022/03/17 10:50:22;;;;;;;;;15.33;12.00;;;;;26.56;22.17;102661.34;5082197;27;45474;-78
2022/03/17 10:52:52;;;;;;;;;13.00;10.67;;;;;26.35;22.13;102661.66;5072841;27;45345;-78
2022/03/17 10:55:29;;;;;;;;;11.67;8.67;;;;;26.49;22.19;102674.16;5079009;27;45460;-78
2022/03/17 10:57:59;;;;;;;;;11.00;9.00;;;;;26.52;22.01;102671.38;5075334;27;46135;-83
2022/03/17 11:00:27;;;;;;;;;11.33;8.33;;;;;26.54;22.04;102678.59;5069447;27;45399;-79
2022/03/17 11:02:57;;;;;;;;;12.00;11.00;;;;;26.54;21.96;102691.31;5079285;27;45631;-79
2022/03/17 11:05:22;;;;;;;;;17.67;11.67;;;;;26.49;22.12;102693.22;5083498;27;45639;-80
2022/03/17 11:07:48;;;;;;;;;10.00;9.00;;;;;26.24;22.32;102655.50;5073882;27;45551;-79
2022/03/17 11:10:16;;;;;;;;;12.67;11.00;;;;;26.74;22.14;102690.97;5076756;27;46692;-79
2022/03/17 11:12:45;;;;;;;;;8.67;7.33;;;;;26.92;21.76;102683.38;5067495;27;45455;-79
2022/03/17 11:15:11;;;;;;;;;11.00;11.00;;;;;26.79;21.77;102631.91;5075737;27;45531;-78
2022/03/17 11:17:46;;;;;;;;;11.33;10.00;;;;;26.79;21.81;102696.34;5074304;28;46354;-79
2022/03/17 11:20:16;;;;;;;;;12.00;10.67;;;;;27.05;21.64;102713.09;5078684;27;45513;-78
2022/03/17 11:22:44;;;;;;;;;12.00;12.00;;;;;27.02;21.77;102710.44;5075547;27;45447;-78
2022/03/17 11:25:23;;;;;;;;;12.67;12.33;;;;;26.49;22.18;102699.53;5075447;27;45691;-76
2022/03/17 11:27:55;;;;;;;;;12.33;11.00;;;;;26.82;22.01;102705.38;5107090;27;47232;-75